sensor_id;sensor_type;location;lat;lon;timestamp;temperature;humidity
26541;DHT22;14206;50.202;10.948;2023-07-22T00:00:03;16.10;96.60
26541;DHT22;14206;50.202;10.948;2023-07-22T00:02:33;16.20;96.60
26541;DHT22;14206;50.202;10.948;2023-07-22T00:05:00;16.10;96.60
26541;DHT22;14206;50.202;10.948;2023-07-22T00:07:27;16.20;96.60
26541;DHT22;14206;50.202;10.948;2023-07-22T00:09:54;16.20;96.60
26541;DHT22;14206;50.202;10.948;2023-07-22T00:12:22;16.20;96.60
26541;DHT22;14206;50.202;10.948;2023-07-22T00:14:52;16.20;96.60
26541;DHT22;14206;50.202;10.948;2023-07-22T00:17:20;16.20;96.60
26541;DHT22;14206;50.202;10.948;2023-07-22T00:19:51;16.20;96.60
26541;DHT22;14206;50.202;10.948;2023-07-22T00:22:22;16.20;96.60
26541;DHT22;14206;50.202;10.948;2023-07-22T00:24:49;16.20;96.60
26541;DHT22;14206;50.202;10.948;2023-07-22T00:27:16;16.30;96.60
26541;DHT22;14206;50.202;10.948;2023-07-22T00:29:43;16.30;96.60
26541;DHT22;14206;50.202;10.948;2023-07-22T00:32:10;16.30;96.60
26541;DHT22;14206;50.202;10.948;2023-07-22T00:34:37;16.30;96.60
26541;DHT22;14206;50.202;10.948;2023-07-22T00:37:05;16.30;96.60
26541;DHT22;14206;50.202;10.948;2023-07-22T00:39:32;16.30;96.60
26541;DHT22;14206;50.202;10.948;2023-07-22T00:41:59;16.30;96.60
26541;DHT22;14206;50.202;10.948;2023-07-22T00:44:26;16.30;96.60
26541;DHT22;14206;50.202;10.948;2023-07-22T00:46:56;16.40;96.60
26541;DHT22;14206;50.202;10.948;2023-07-22T00:49:26;16.40;96.60
26541;DHT22;14206;50.202;10.948;2023-07-22T00:51:53;16.40;96.60
26541;DHT22;14206;50.202;10.948;2023-07-22T00:54:20;16.30;96.60
26541;DHT22;14206;50.202;10.948;2023-07-22T00:56:47;16.30;96.60
26541;DHT22;14206;50.202;10.948;2023-07-22T00:59:15;16.30;96.60
26541;DHT22;14206;50.202;10.948;2023-07-22T01:01:43;16.20;96.60
26541;DHT22;14206;50.202;10.948;2023-07-22T01:04:13;16.20;96.60
26541;DHT22;14206;50.202;10.948;2023-07-22T01:06:42;16.20;96.60
26541;DHT22;14206;50.202;10.948;2023-07-22T01:09:10;16.20;96.60
26541;DHT22;14206;50.202;10.948;2023-07-22T01:11:37;16.20;96.60
26541;DHT22;14206;50.202;10.948;2023-07-22T01:14:05;16.20;96.60
26541;DHT22;14206;50.202;10.948;2023-07-22T01:16:32;16.20;96.60
26541;DHT22;14206;50.202;10.948;2023-07-22T01:18:59;16.20;96.60
26541;DHT22;14206;50.202;10.948;2023-07-22T01:21:28;16.20;96.60
26541;DHT22;14206;50.202;10.948;2023-07-22T01:23:56;16.20;96.60
26541;DHT22;14206;50.202;10.948;2023-07-22T01:26:24;16.20;96.60
26541;DHT22;14206;50.202;10.948;2023-07-22T01:29:02;16.10;96.60
26541;DHT22;14206;50.202;10.948;2023-07-22T01:31:29;16.10;96.60
26541;DHT22;14206;50.202;10.948;2023-07-22T01:33:56;16.00;96.60
26541;DHT22;14206;50.202;10.948;2023-07-22T01:36:25;15.90;96.60
26541;DHT22;14206;50.202;10.948;2023-07-22T01:38:53;15.70;96.60
26541;DHT22;14206;50.202;10.948;2023-07-22T01:41:20;15.60;96.60
26541;DHT22;14206;50.202;10.948;2023-07-22T01:43:47;15.60;96.60
26541;DHT22;14206;50.202;10.948;2023-07-22T01:46:14;15.60;96.60
26541;DHT22;14206;50.202;10.948;2023-07-22T01:48:41;15.60;96.60
26541;DHT22;14206;50.202;10.948;2023-07-22T01:51:09;15.60;96.60
26541;DHT22;14206;50.202;10.948;2023-07-22T01:53:36;15.60;96.60
26541;DHT22;14206;50.202;10.948;2023-07-22T01:56:04;15.60;96.60
26541;DHT22;14206;50.202;10.948;2023-07-22T01:58:32;15.60;96.60
26541;DHT22;14206;50.202;10.948;2023-07-22T02:01:00;15.60;96.60
26541;DHT22;14206;50.202;10.948;2023-07-22T02:03:27;15.60;96.60
26541;DHT22;14206;50.202;10.948;2023-07-22T02:06:01;15.60;96.60
26541;DHT22;14206;50.202;10.948;2023-07-22T02:08:29;15.60;96.60
26541;DHT22;14206;50.202;10.948;2023-07-22T02:11:04;15.60;96.60
26541;DHT22;14206;50.202;10.948;2023-07-22T02:13:33;15.60;96.60
26541;DHT22;14206;50.202;10.948;2023-07-22T02:16:01;15.50;96.60
26541;DHT22;14206;50.202;10.948;2023-07-22T02:18:29;15.50;96.60
26541;DHT22;14206;50.202;10.948;2023-07-22T02:20:57;15.40;96.60
26541;DHT22;14206;50.202;10.948;2023-07-22T02:23:24;15.30;96.60
26541;DHT22;14206;50.202;10.948;2023-07-22T02:25:52;15.20;96.60
26541;DHT22;14206;50.202;10.948;2023-07-22T02:28:20;15.20;96.60
26541;DHT22;14206;50.202;10.948;2023-07-22T02:30:49;15.10;96.60
26541;DHT22;14206;50.202;10.948;2023-07-22T02:33:17;15.00;96.60
26541;DHT22;14206;50.202;10.948;2023-07-22T02:35:44;15.00;96.60
26541;DHT22;14206;50.202;10.948;2023-07-22T02:38:12;14.90;96.60
26541;DHT22;14206;50.202;10.948;2023-07-22T02:40:41;14.90;96.60
26541;DHT22;14206;50.202;10.948;2023-07-22T02:43:09;14.90;96.60
26541;DHT22;14206;50.202;10.948;2023-07-22T02:45:37;15.00;96.60
26541;DHT22;14206;50.202;10.948;2023-07-22T02:48:04;15.00;96.60
26541;DHT22;14206;50.202;10.948;2023-07-22T03:02:35;14.50;96.60
26541;DHT22;14206;50.202;10.948;2023-07-22T03:05:06;14.40;96.60
26541;DHT22;14206;50.202;10.948;2023-07-22T03:07:37;14.30;96.60
26541;DHT22;14206;50.202;10.948;2023-07-22T03:10:06;14.30;96.60
26541;DHT22;14206;50.202;10.948;2023-07-22T03:12:34;14.30;96.60
26541;DHT22;14206;50.202;10.948;2023-07-22T03:15:02;14.40;96.60
26541;DHT22;14206;50.202;10.948;2023-07-22T03:17:30;14.40;96.60
26541;DHT22;14206;50.202;10.948;2023-07-22T03:19:57;14.50;96.60
26541;DHT22;14206;50.202;10.948;2023-07-22T03:22:24;14.50;96.60
26541;DHT22;14206;50.202;10.948;2023-07-22T03:24:51;14.50;96.60
26541;DHT22;14206;50.202;10.948;2023-07-22T03:27:19;14.50;96.60
26541;DHT22;14206;50.202;10.948;2023-07-22T03:29:46;14.40;96.60
26541;DHT22;14206;50.202;10.948;2023-07-22T03:32:13;14.40;96.60
26541;DHT22;14206;50.202;10.948;2023-07-22T03:34:40;14.40;96.60
26541;DHT22;14206;50.202;10.948;2023-07-22T03:37:44;14.40;96.60
26541;DHT22;14206;50.202;10.948;2023-07-22T04:42:48;14.40;96.60
26541;DHT22;14206;50.202;10.948;2023-07-22T05:43:25;15.70;96.60
26541;DHT22;14206;50.202;10.948;2023-07-22T05:46:14;15.90;96.60
26541;DHT22;14206;50.202;10.948;2023-07-22T05:48:41;16.00;96.60
26541;DHT22;14206;50.202;10.948;2023-07-22T05:51:09;16.00;96.60
26541;DHT22;14206;50.202;10.948;2023-07-22T05:53:36;16.10;95.70
26541;DHT22;14206;50.202;10.948;2023-07-22T05:56:04;16.20;96.20
26541;DHT22;14206;50.202;10.948;2023-07-22T05:58:31;16.30;96.30
26541;DHT22;14206;50.202;10.948;2023-07-22T06:00:58;16.50;96.10
26541;DHT22;14206;50.202;10.948;2023-07-22T06:03:25;16.60;95.70
26541;DHT22;14206;50.202;10.948;2023-07-22T06:05:52;16.80;95.40
26541;DHT22;14206;50.202;10.948;2023-07-22T06:08:19;16.90;94.70
26541;DHT22;14206;50.202;10.948;2023-07-22T06:10:48;17.00;93.60
26541;DHT22;14206;50.202;10.948;2023-07-22T06:13:17;17.10;93.70
26541;DHT22;14206;50.202;10.948;2023-07-22T06:15:44;17.20;92.20
26541;DHT22;14206;50.202;10.948;2023-07-22T06:18:11;17.40;91.20
26541;DHT22;14206;50.202;10.948;2023-07-22T06:20:39;17.50;90.30
26541;DHT22;14206;50.202;10.948;2023-07-22T06:23:06;17.60;91.10
26541;DHT22;14206;50.202;10.948;2023-07-22T06:25:33;17.80;90.40
26541;DHT22;14206;50.202;10.948;2023-07-22T06:28:01;18.00;90.20
26541;DHT22;14206;50.202;10.948;2023-07-22T06:30:28;18.10;89.20
26541;DHT22;14206;50.202;10.948;2023-07-22T06:33:26;18.30;89.10
26541;DHT22;14206;50.202;10.948;2023-07-22T06:35:53;18.50;87.60
26541;DHT22;14206;50.202;10.948;2023-07-22T06:38:48;18.80;87.10
26541;DHT22;14206;50.202;10.948;2023-07-22T06:41:16;19.20;86.10
26541;DHT22;14206;50.202;10.948;2023-07-22T06:43:43;19.50;85.00
26541;DHT22;14206;50.202;10.948;2023-07-22T06:46:10;20.00;83.30
26541;DHT22;14206;50.202;10.948;2023-07-22T06:48:38;20.80;80.30
26541;DHT22;14206;50.202;10.948;2023-07-22T06:51:07;21.40;77.90
26541;DHT22;14206;50.202;10.948;2023-07-22T06:53:49;22.10;77.00
26541;DHT22;14206;50.202;10.948;2023-07-22T06:56:16;22.70;73.60
26541;DHT22;14206;50.202;10.948;2023-07-22T06:58:43;23.40;74.20
26541;DHT22;14206;50.202;10.948;2023-07-22T07:01:10;24.00;71.40
26541;DHT22;14206;50.202;10.948;2023-07-22T07:03:37;24.60;68.50
26541;DHT22;14206;50.202;10.948;2023-07-22T07:06:04;25.10;65.20
26541;DHT22;14206;50.202;10.948;2023-07-22T07:08:31;25.50;64.60
26541;DHT22;14206;50.202;10.948;2023-07-22T07:10:59;26.00;63.10
26541;DHT22;14206;50.202;10.948;2023-07-22T07:13:28;26.50;62.30
26541;DHT22;14206;50.202;10.948;2023-07-22T07:15:55;27.20;58.10
26541;DHT22;14206;50.202;10.948;2023-07-22T07:18:22;27.70;57.70
26541;DHT22;14206;50.202;10.948;2023-07-22T07:20:49;28.20;56.50
26541;DHT22;14206;50.202;10.948;2023-07-22T07:23:17;28.60;54.90
26541;DHT22;14206;50.202;10.948;2023-07-22T07:25:44;28.80;52.70
26541;DHT22;14206;50.202;10.948;2023-07-22T07:28:11;28.90;53.20
26541;DHT22;14206;50.202;10.948;2023-07-22T07:30:39;29.10;52.60
26541;DHT22;14206;50.202;10.948;2023-07-22T07:33:06;29.40;53.90
26541;DHT22;14206;50.202;10.948;2023-07-22T07:35:33;29.70;53.50
26541;DHT22;14206;50.202;10.948;2023-07-22T07:38:00;30.00;53.30
26541;DHT22;14206;50.202;10.948;2023-07-22T07:40:29;30.20;51.30
26541;DHT22;14206;50.202;10.948;2023-07-22T07:42:56;30.10;51.30
26541;DHT22;14206;50.202;10.948;2023-07-22T07:45:22;29.90;51.80
26541;DHT22;14206;50.202;10.948;2023-07-22T07:47:50;30.10;51.70
26541;DHT22;14206;50.202;10.948;2023-07-22T07:50:17;30.40;51.50
26541;DHT22;14206;50.202;10.948;2023-07-22T07:52:43;30.60;50.10
26541;DHT22;14206;50.202;10.948;2023-07-22T07:55:10;30.80;50.40
26541;DHT22;14206;50.202;10.948;2023-07-22T07:57:37;30.80;48.90
26541;DHT22;14206;50.202;10.948;2023-07-22T08:00:05;30.60;48.50
26541;DHT22;14206;50.202;10.948;2023-07-22T08:02:32;30.80;47.80
26541;DHT22;14206;50.202;10.948;2023-07-22T08:04:59;31.10;47.00
26541;DHT22;14206;50.202;10.948;2023-07-22T08:07:29;31.60;48.70
26541;DHT22;14206;50.202;10.948;2023-07-22T08:09:56;31.70;46.70
26541;DHT22;14206;50.202;10.948;2023-07-22T08:12:24;31.20;46.70
26541;DHT22;14206;50.202;10.948;2023-07-22T08:14:53;31.00;46.30
26541;DHT22;14206;50.202;10.948;2023-07-22T08:17:20;30.50;47.40
26541;DHT22;14206;50.202;10.948;2023-07-22T08:19:46;30.20;47.30
26541;DHT22;14206;50.202;10.948;2023-07-22T08:22:13;29.90;47.50
26541;DHT22;14206;50.202;10.948;2023-07-22T08:24:40;28.90;48.00
26541;DHT22;14206;50.202;10.948;2023-07-22T08:27:07;29.10;50.80
26541;DHT22;14206;50.202;10.948;2023-07-22T08:29:34;30.00;49.70
26541;DHT22;14206;50.202;10.948;2023-07-22T08:32:01;30.00;49.60
26541;DHT22;14206;50.202;10.948;2023-07-22T08:34:28;29.50;50.10
26541;DHT22;14206;50.202;10.948;2023-07-22T08:36:55;29.70;48.00
26541;DHT22;14206;50.202;10.948;2023-07-22T08:39:21;30.40;47.70
26541;DHT22;14206;50.202;10.948;2023-07-22T08:41:50;30.60;46.20
26541;DHT22;14206;50.202;10.948;2023-07-22T08:44:20;30.70;45.90
26541;DHT22;14206;50.202;10.948;2023-07-22T08:46:55;31.00;45.10
26541;DHT22;14206;50.202;10.948;2023-07-22T08:49:24;30.60;46.90
26541;DHT22;14206;50.202;10.948;2023-07-22T08:51:54;30.30;46.80
26541;DHT22;14206;50.202;10.948;2023-07-22T08:54:23;30.50;46.40
26541;DHT22;14206;50.202;10.948;2023-07-22T08:56:50;30.00;46.80
26541;DHT22;14206;50.202;10.948;2023-07-22T08:59:18;29.20;47.90
26541;DHT22;14206;50.202;10.948;2023-07-22T09:01:47;28.60;50.20
26541;DHT22;14206;50.202;10.948;2023-07-22T09:04:14;28.20;49.90
26541;DHT22;14206;50.202;10.948;2023-07-22T09:06:42;28.20;50.40
26541;DHT22;14206;50.202;10.948;2023-07-22T09:09:10;27.90;48.90
26541;DHT22;14206;50.202;10.948;2023-07-22T09:11:38;27.80;50.10
26541;DHT22;14206;50.202;10.948;2023-07-22T09:14:05;28.10;50.60
26541;DHT22;14206;50.202;10.948;2023-07-22T09:16:32;28.70;49.40
26541;DHT22;14206;50.202;10.948;2023-07-22T09:19:00;29.60;49.20
26541;DHT22;14206;50.202;10.948;2023-07-22T09:21:29;29.70;48.50
26541;DHT22;14206;50.202;10.948;2023-07-22T09:23:56;30.00;48.70
26541;DHT22;14206;50.202;10.948;2023-07-22T09:26:23;30.60;49.20
26541;DHT22;14206;50.202;10.948;2023-07-22T09:28:53;30.40;48.60
26541;DHT22;14206;50.202;10.948;2023-07-22T09:31:24;29.90;48.80
26541;DHT22;14206;50.202;10.948;2023-07-22T09:33:52;29.20;49.20
26541;DHT22;14206;50.202;10.948;2023-07-22T09:36:22;28.60;49.70
26541;DHT22;14206;50.202;10.948;2023-07-22T09:39:02;29.50;50.50
26541;DHT22;14206;50.202;10.948;2023-07-22T09:41:30;30.80;48.50
26541;DHT22;14206;50.202;10.948;2023-07-22T09:44:01;31.70;47.70
26541;DHT22;14206;50.202;10.948;2023-07-22T09:46:32;31.90;46.10
26541;DHT22;14206;50.202;10.948;2023-07-22T09:49:06;31.60;44.60
26541;DHT22;14206;50.202;10.948;2023-07-22T09:51:40;31.90;45.30
26541;DHT22;14206;50.202;10.948;2023-07-22T09:54:27;31.60;46.00
26541;DHT22;14206;50.202;10.948;2023-07-22T09:56:58;30.80;47.00
26541;DHT22;14206;50.202;10.948;2023-07-22T09:59:28;29.80;47.30
26541;DHT22;14206;50.202;10.948;2023-07-22T10:01:56;28.80;48.30
26541;DHT22;14206;50.202;10.948;2023-07-22T10:04:28;28.40;51.00
26541;DHT22;14206;50.202;10.948;2023-07-22T10:07:00;29.20;49.80
26541;DHT22;14206;50.202;10.948;2023-07-22T10:09:28;30.40;48.50
26541;DHT22;14206;50.202;10.948;2023-07-22T10:11:56;31.50;47.60
26541;DHT22;14206;50.202;10.948;2023-07-22T10:14:23;31.80;47.10
26541;DHT22;14206;50.202;10.948;2023-07-22T10:16:50;31.20;46.30
26541;DHT22;14206;50.202;10.948;2023-07-22T10:19:20;30.60;47.50
26541;DHT22;14206;50.202;10.948;2023-07-22T10:21:48;29.80;47.30
26541;DHT22;14206;50.202;10.948;2023-07-22T10:24:17;29.20;47.90
26541;DHT22;14206;50.202;10.948;2023-07-22T10:26:44;28.80;48.40
26541;DHT22;14206;50.202;10.948;2023-07-22T10:29:14;28.20;50.40
26541;DHT22;14206;50.202;10.948;2023-07-22T10:31:41;28.80;51.10
26541;DHT22;14206;50.202;10.948;2023-07-22T10:34:08;29.40;50.00
26541;DHT22;14206;50.202;10.948;2023-07-22T10:36:37;29.20;49.30
26541;DHT22;14206;50.202;10.948;2023-07-22T10:39:04;28.90;49.10
26541;DHT22;14206;50.202;10.948;2023-07-22T10:41:32;28.20;50.20
26541;DHT22;14206;50.202;10.948;2023-07-22T10:44:06;27.20;52.70
26541;DHT22;14206;50.202;10.948;2023-07-22T10:46:37;26.30;54.10
26541;DHT22;14206;50.202;10.948;2023-07-22T10:49:15;25.70;55.60
26541;DHT22;14206;50.202;10.948;2023-07-22T10:51:51;25.40;57.70
26541;DHT22;14206;50.202;10.948;2023-07-22T10:54:32;25.50;57.00
26541;DHT22;14206;50.202;10.948;2023-07-22T10:59:52;25.40;57.60
26541;DHT22;14206;50.202;10.948;2023-07-22T11:02:27;25.20;57.60
26541;DHT22;14206;50.202;10.948;2023-07-22T11:04:58;25.20;58.40
26541;DHT22;14206;50.202;10.948;2023-07-22T11:07:34;25.20;58.10
26541;DHT22;14206;50.202;10.948;2023-07-22T11:10:19;25.50;58.40
26541;DHT22;14206;50.202;10.948;2023-07-22T11:12:46;25.90;57.10
26541;DHT22;14206;50.202;10.948;2023-07-22T11:15:17;25.80;58.10
26541;DHT22;14206;50.202;10.948;2023-07-22T11:17:45;25.70;57.80
26541;DHT22;14206;50.202;10.948;2023-07-22T11:20:12;25.60;58.50
26541;DHT22;14206;50.202;10.948;2023-07-22T11:22:40;25.60;58.70
26541;DHT22;14206;50.202;10.948;2023-07-22T11:25:08;25.50;58.70
26541;DHT22;14206;50.202;10.948;2023-07-22T11:27:35;25.50;58.80
26541;DHT22;14206;50.202;10.948;2023-07-22T11:30:03;25.50;57.70
26541;DHT22;14206;50.202;10.948;2023-07-22T11:32:32;25.20;59.10
26541;DHT22;14206;50.202;10.948;2023-07-22T11:34:59;25.00;59.40
26541;DHT22;14206;50.202;10.948;2023-07-22T11:37:27;24.60;59.30
26541;DHT22;14206;50.202;10.948;2023-07-22T11:40:02;24.40;60.00
26541;DHT22;14206;50.202;10.948;2023-07-22T11:42:29;24.10;60.90
26541;DHT22;14206;50.202;10.948;2023-07-22T11:44:57;24.00;62.00
26541;DHT22;14206;50.202;10.948;2023-07-22T11:47:29;24.00;63.10
26541;DHT22;14206;50.202;10.948;2023-07-22T11:50:00;24.20;61.80
26541;DHT22;14206;50.202;10.948;2023-07-22T11:52:27;24.30;61.40
26541;DHT22;14206;50.202;10.948;2023-07-22T11:55:01;24.30;61.10
26541;DHT22;14206;50.202;10.948;2023-07-22T11:57:28;24.20;60.80
26541;DHT22;14206;50.202;10.948;2023-07-22T11:59:56;24.20;60.30
26541;DHT22;14206;50.202;10.948;2023-07-22T12:02:25;24.40;61.50
26541;DHT22;14206;50.202;10.948;2023-07-22T12:07:26;24.20;60.10
26541;DHT22;14206;50.202;10.948;2023-07-22T12:09:55;23.90;60.00
26541;DHT22;14206;50.202;10.948;2023-07-22T12:12:36;23.60;60.30
26541;DHT22;14206;50.202;10.948;2023-07-22T12:20:11;23.00;62.30
26541;DHT22;14206;50.202;10.948;2023-07-22T12:22:38;23.00;62.20
26541;DHT22;14206;50.202;10.948;2023-07-22T12:25:06;23.00;62.20
26541;DHT22;14206;50.202;10.948;2023-07-22T12:27:33;23.20;63.00
26541;DHT22;14206;50.202;10.948;2023-07-22T12:30:00;23.40;62.60
26541;DHT22;14206;50.202;10.948;2023-07-22T12:32:27;23.50;62.30
26541;DHT22;14206;50.202;10.948;2023-07-22T12:34:54;23.60;62.70
26541;DHT22;14206;50.202;10.948;2023-07-22T12:37:20;23.70;61.90
26541;DHT22;14206;50.202;10.948;2023-07-22T12:39:47;23.80;62.30
26541;DHT22;14206;50.202;10.948;2023-07-22T12:42:14;23.80;61.90
26541;DHT22;14206;50.202;10.948;2023-07-22T12:44:41;23.90;61.40
26541;DHT22;14206;50.202;10.948;2023-07-22T12:47:08;23.90;61.60
26541;DHT22;14206;50.202;10.948;2023-07-22T12:49:35;23.90;59.00
26541;DHT22;14206;50.202;10.948;2023-07-22T12:52:02;23.80;59.80
26541;DHT22;14206;50.202;10.948;2023-07-22T12:54:31;23.80;59.60
26541;DHT22;14206;50.202;10.948;2023-07-22T12:56:58;24.00;60.00
26541;DHT22;14206;50.202;10.948;2023-07-22T12:59:25;24.20;59.90
26541;DHT22;14206;50.202;10.948;2023-07-22T13:01:52;24.50;59.40
26541;DHT22;14206;50.202;10.948;2023-07-22T13:04:19;24.80;59.10
26541;DHT22;14206;50.202;10.948;2023-07-22T13:06:46;25.10;59.50
26541;DHT22;14206;50.202;10.948;2023-07-22T13:09:13;25.50;58.50
26541;DHT22;14206;50.202;10.948;2023-07-22T13:11:40;25.70;56.90
26541;DHT22;14206;50.202;10.948;2023-07-22T13:14:07;25.80;56.80
26541;DHT22;14206;50.202;10.948;2023-07-22T13:16:34;25.90;57.10
26541;DHT22;14206;50.202;10.948;2023-07-22T13:19:01;26.00;57.50
26541;DHT22;14206;50.202;10.948;2023-07-22T13:21:30;26.10;57.50
26541;DHT22;14206;50.202;10.948;2023-07-22T13:23:57;26.10;56.30
26541;DHT22;14206;50.202;10.948;2023-07-22T13:26:24;26.10;55.90
26541;DHT22;14206;50.202;10.948;2023-07-22T13:28:51;26.00;56.20
26541;DHT22;14206;50.202;10.948;2023-07-22T13:31:22;26.20;56.60
26541;DHT22;14206;50.202;10.948;2023-07-22T13:33:49;26.40;55.70
26541;DHT22;14206;50.202;10.948;2023-07-22T13:36:16;26.50;55.50
26541;DHT22;14206;50.202;10.948;2023-07-22T13:38:43;26.60;55.80
26541;DHT22;14206;50.202;10.948;2023-07-22T13:41:09;26.70;54.70
26541;DHT22;14206;50.202;10.948;2023-07-22T13:43:36;26.70;54.10
26541;DHT22;14206;50.202;10.948;2023-07-22T13:46:03;26.70;54.80
26541;DHT22;14206;50.202;10.948;2023-07-22T13:48:31;26.70;55.20
26541;DHT22;14206;50.202;10.948;2023-07-22T13:50:58;26.60;53.80
26541;DHT22;14206;50.202;10.948;2023-07-22T13:53:25;26.50;54.30
26541;DHT22;14206;50.202;10.948;2023-07-22T13:55:52;26.50;55.40
26541;DHT22;14206;50.202;10.948;2023-07-22T13:58:19;26.50;53.90
26541;DHT22;14206;50.202;10.948;2023-07-22T14:00:46;26.50;53.80
26541;DHT22;14206;50.202;10.948;2023-07-22T14:03:14;26.50;54.00
26541;DHT22;14206;50.202;10.948;2023-07-22T14:05:41;26.50;55.00
26541;DHT22;14206;50.202;10.948;2023-07-22T14:08:08;26.50;54.40
26541;DHT22;14206;50.202;10.948;2023-07-22T14:10:35;26.50;54.40
26541;DHT22;14206;50.202;10.948;2023-07-22T14:13:02;26.50;54.80
26541;DHT22;14206;50.202;10.948;2023-07-22T14:15:29;26.50;54.50
26541;DHT22;14206;50.202;10.948;2023-07-22T14:17:56;26.50;54.20
26541;DHT22;14206;50.202;10.948;2023-07-22T14:20:23;26.60;55.30
26541;DHT22;14206;50.202;10.948;2023-07-22T14:22:50;26.60;54.20
26541;DHT22;14206;50.202;10.948;2023-07-22T14:25:17;26.40;53.60
26541;DHT22;14206;50.202;10.948;2023-07-22T14:27:45;26.20;54.30
26541;DHT22;14206;50.202;10.948;2023-07-22T14:30:12;26.00;54.30
26541;DHT22;14206;50.202;10.948;2023-07-22T14:32:39;26.00;54.50
26541;DHT22;14206;50.202;10.948;2023-07-22T14:35:06;26.00;55.60
26541;DHT22;14206;50.202;10.948;2023-07-22T14:37:33;26.10;55.50
26541;DHT22;14206;50.202;10.948;2023-07-22T14:40:00;26.30;54.40
26541;DHT22;14206;50.202;10.948;2023-07-22T14:42:27;26.40;54.40
26541;DHT22;14206;50.202;10.948;2023-07-22T14:44:54;26.40;54.30
26541;DHT22;14206;50.202;10.948;2023-07-22T14:47:21;26.40;54.70
26541;DHT22;14206;50.202;10.948;2023-07-22T14:49:48;26.40;54.30
26541;DHT22;14206;50.202;10.948;2023-07-22T14:52:18;26.30;54.70
26541;DHT22;14206;50.202;10.948;2023-07-22T14:54:45;26.30;54.00
26541;DHT22;14206;50.202;10.948;2023-07-22T14:57:12;26.30;53.40
26541;DHT22;14206;50.202;10.948;2023-07-22T14:59:39;26.20;54.30
26541;DHT22;14206;50.202;10.948;2023-07-22T15:02:06;26.20;54.10
26541;DHT22;14206;50.202;10.948;2023-07-22T15:04:33;26.10;54.50
26541;DHT22;14206;50.202;10.948;2023-07-22T15:07:00;26.00;53.70
26541;DHT22;14206;50.202;10.948;2023-07-22T15:09:27;25.80;54.20
26541;DHT22;14206;50.202;10.948;2023-07-22T15:11:54;25.60;54.30
26541;DHT22;14206;50.202;10.948;2023-07-22T15:14:21;25.40;55.20
26541;DHT22;14206;50.202;10.948;2023-07-22T15:16:48;25.30;56.30
26541;DHT22;14206;50.202;10.948;2023-07-22T15:19:15;25.30;55.30
26541;DHT22;14206;50.202;10.948;2023-07-22T15:21:42;25.40;54.90
26541;DHT22;14206;50.202;10.948;2023-07-22T15:24:09;25.50;54.70
26541;DHT22;14206;50.202;10.948;2023-07-22T15:26:36;25.60;55.30
26541;DHT22;14206;50.202;10.948;2023-07-22T15:29:03;25.70;54.70
26541;DHT22;14206;50.202;10.948;2023-07-22T15:31:30;25.70;55.00
26541;DHT22;14206;50.202;10.948;2023-07-22T15:33:56;25.60;55.80
26541;DHT22;14206;50.202;10.948;2023-07-22T15:36:23;25.60;55.60
26541;DHT22;14206;50.202;10.948;2023-07-22T15:38:50;25.60;55.60
26541;DHT22;14206;50.202;10.948;2023-07-22T15:41:17;25.60;55.80
26541;DHT22;14206;50.202;10.948;2023-07-22T15:43:44;25.70;55.70
26541;DHT22;14206;50.202;10.948;2023-07-22T15:46:11;25.70;54.80
26541;DHT22;14206;50.202;10.948;2023-07-22T15:48:43;25.70;54.80
26541;DHT22;14206;50.202;10.948;2023-07-22T15:51:10;25.70;55.70
26541;DHT22;14206;50.202;10.948;2023-07-22T15:53:37;25.60;54.40
26541;DHT22;14206;50.202;10.948;2023-07-22T15:56:04;25.70;54.80
26541;DHT22;14206;50.202;10.948;2023-07-22T15:58:31;25.70;54.10
26541;DHT22;14206;50.202;10.948;2023-07-22T16:00:58;25.60;53.90
26541;DHT22;14206;50.202;10.948;2023-07-22T16:03:26;25.60;54.40
26541;DHT22;14206;50.202;10.948;2023-07-22T16:05:53;25.50;54.70
26541;DHT22;14206;50.202;10.948;2023-07-22T16:08:20;25.50;55.40
26541;DHT22;14206;50.202;10.948;2023-07-22T16:10:47;25.40;54.50
26541;DHT22;14206;50.202;10.948;2023-07-22T16:13:14;25.30;55.70
26541;DHT22;14206;50.202;10.948;2023-07-22T16:15:41;25.10;54.90
26541;DHT22;14206;50.202;10.948;2023-07-22T16:18:08;25.00;55.20
26541;DHT22;14206;50.202;10.948;2023-07-22T16:20:34;24.80;55.10
26541;DHT22;14206;50.202;10.948;2023-07-22T16:23:01;24.70;55.30
26541;DHT22;14206;50.202;10.948;2023-07-22T16:25:29;24.60;56.30
26541;DHT22;14206;50.202;10.948;2023-07-22T16:27:56;24.60;56.50
26541;DHT22;14206;50.202;10.948;2023-07-22T16:30:23;24.60;56.30
26541;DHT22;14206;50.202;10.948;2023-07-22T16:32:50;24.70;56.70
26541;DHT22;14206;50.202;10.948;2023-07-22T16:35:17;24.70;56.00
26541;DHT22;14206;50.202;10.948;2023-07-22T16:37:44;24.80;56.40
26541;DHT22;14206;50.202;10.948;2023-07-22T16:40:11;24.80;56.50
26541;DHT22;14206;50.202;10.948;2023-07-22T16:42:39;24.80;56.70
26541;DHT22;14206;50.202;10.948;2023-07-22T16:45:06;24.80;57.00
26541;DHT22;14206;50.202;10.948;2023-07-22T16:47:34;24.80;57.90
26541;DHT22;14206;50.202;10.948;2023-07-22T16:50:02;24.80;57.30
26541;DHT22;14206;50.202;10.948;2023-07-22T16:52:29;24.80;57.60
26541;DHT22;14206;50.202;10.948;2023-07-22T16:54:56;24.90;57.80
26541;DHT22;14206;50.202;10.948;2023-07-22T16:57:23;25.00;57.20
26541;DHT22;14206;50.202;10.948;2023-07-22T16:59:50;25.00;57.50
26541;DHT22;14206;50.202;10.948;2023-07-22T17:02:17;25.00;56.70
26541;DHT22;14206;50.202;10.948;2023-07-22T17:04:44;24.90;56.30
26541;DHT22;14206;50.202;10.948;2023-07-22T17:07:12;24.80;55.60
26541;DHT22;14206;50.202;10.948;2023-07-22T17:09:39;24.80;55.90
26541;DHT22;14206;50.202;10.948;2023-07-22T17:12:06;24.70;55.50
26541;DHT22;14206;50.202;10.948;2023-07-22T17:14:33;24.60;56.10
26541;DHT22;14206;50.202;10.948;2023-07-22T17:17:00;24.60;56.10
26541;DHT22;14206;50.202;10.948;2023-07-22T17:19:30;24.60;56.30
26541;DHT22;14206;50.202;10.948;2023-07-22T17:21:57;24.60;56.70
26541;DHT22;14206;50.202;10.948;2023-07-22T17:24:24;24.60;57.30
26541;DHT22;14206;50.202;10.948;2023-07-22T17:26:51;24.60;57.90
26541;DHT22;14206;50.202;10.948;2023-07-22T17:29:18;24.50;57.20
26541;DHT22;14206;50.202;10.948;2023-07-22T17:31:45;24.50;57.30
26541;DHT22;14206;50.202;10.948;2023-07-22T17:34:12;24.40;57.40
26541;DHT22;14206;50.202;10.948;2023-07-22T17:36:39;24.30;57.80
26541;DHT22;14206;50.202;10.948;2023-07-22T17:39:06;24.20;57.30
26541;DHT22;14206;50.202;10.948;2023-07-22T17:41:33;24.20;57.60
26541;DHT22;14206;50.202;10.948;2023-07-22T17:44:00;24.10;57.50